createdAt,value
2018-02-08T00:00:06.231Z,69.84
2018-02-08T00:00:46.761Z,69.56
2018-02-08T00:01:27.314Z,69.74
2018-02-08T00:02:07.875Z,69.56
2018-02-08T00:02:48.421Z,69.65
2018-02-08T00:03:28.992Z,69.84
2018-02-08T00:04:09.549Z,69.84
2018-02-08T00:04:50.083Z,68.9
2018-02-08T00:05:30.647Z,68.9
2018-02-08T00:06:11.160Z,69.27
2018-02-08T00:06:51.731Z,68.99
2018-02-08T00:07:32.288Z,69.09
2018-02-08T00:08:12.853Z,69.18
2018-02-08T00:08:53.417Z,69.09
2018-02-08T00:09:33.920Z,68.9
2018-02-08T00:10:14.473Z,69.09
2018-02-08T00:10:55.023Z,69.27
2018-02-08T00:11:35.553Z,69.18
2018-02-08T00:12:16.163Z,68.8
2018-02-08T00:12:56.704Z,68.71
2018-02-08T00:13:37.249Z,68.9
2018-02-08T00:14:17.797Z,68.8
2018-02-08T00:14:58.352Z,68.9
2018-02-08T00:15:38.902Z,68.71
2018-02-08T00:16:19.455Z,68.71
2018-02-08T00:17:00.046Z,69.37
2018-02-08T00:17:40.652Z,69.27
2018-02-08T00:18:21.172Z,69.18
2018-02-08T00:19:01.729Z,68.8
2018-02-08T00:19:42.302Z,69.27
2018-02-08T00:20:22.927Z,69.27
2018-02-08T00:21:03.473Z,69.09
2018-02-08T00:21:44.036Z,69.18
2018-02-08T00:22:24.594Z,69.37
2018-02-08T00:23:05.136Z,68.8
2018-02-08T00:23:45.680Z,69.27
2018-02-08T00:24:26.271Z,69.37
2018-02-08T00:25:06.800Z,69.37
2018-02-08T00:25:47.349Z,69.18
2018-02-08T00:26:27.900Z,69.18
2018-02-08T00:27:08.454Z,69.27
2018-02-08T00:27:49.006Z,69.37
2018-02-08T00:28:29.535Z,69.37
2018-02-08T00:29:10.081Z,69.18
2018-02-08T00:29:50.636Z,68.42
2018-02-08T00:30:31.201Z,69.09
2018-02-08T00:31:11.749Z,69.27
2018-02-08T00:31:52.309Z,69.09
2018-02-08T00:32:32.872Z,69.09
2018-02-08T00:33:13.431Z,69.37
2018-02-08T00:33:53.971Z,69.37
2018-02-08T00:34:34.533Z,69.37
2018-02-08T00:35:15.115Z,69.18
2018-02-08T00:35:55.642Z,69.09
2018-02-08T00:36:36.176Z,68.99
2018-02-08T00:37:16.719Z,69.74
2018-02-08T00:37:57.255Z,69.56
2018-02-08T00:38:37.815Z,69.56
2018-02-08T00:39:18.404Z,69.65
2018-02-08T00:39:58.961Z,69.56
2018-02-08T00:40:39.515Z,69.56
2018-02-08T00:41:20.074Z,69.27
2018-02-08T00:42:00.673Z,69.65
2018-02-08T00:42:41.227Z,69.56
2018-02-08T00:43:21.781Z,69.46
2018-02-08T00:44:02.338Z,69.37
2018-02-08T00:44:42.906Z,69.65
2018-02-08T00:45:23.463Z,69.74
2018-02-08T00:46:04.019Z,69.56
2018-02-08T00:46:44.556Z,69.56
2018-02-08T00:47:25.133Z,69.37
2018-02-08T00:48:05.707Z,69.37
2018-02-08T00:48:46.316Z,69.65
2018-02-08T00:49:26.881Z,69.37
2018-02-08T00:50:07.427Z,69.65
2018-02-08T00:50:48.075Z,69.56
2018-02-08T00:51:28.620Z,69.46
2018-02-08T00:52:09.182Z,69.37
2018-02-08T00:52:49.832Z,69.65
2018-02-08T00:53:30.315Z,69.37
2018-02-08T00:54:10.869Z,70.03
2018-02-08T00:54:51.437Z,70.12
2018-02-08T00:55:31.993Z,70.21
2018-02-08T00:56:12.603Z,70.12
2018-02-08T00:56:53.175Z,70.12
2018-02-08T00:57:33.759Z,70.31
2018-02-08T00:58:14.295Z,69.84
2018-02-08T00:58:54.860Z,69.74
2018-02-08T00:59:35.413Z,69.65
2018-02-08T01:00:15.983Z,69.56
2018-02-08T01:00:56.524Z,70.03
2018-02-08T01:01:37.110Z,69.65
2018-02-08T01:02:17.651Z,69.84
2018-02-08T01:02:58.211Z,69.84
2018-02-08T01:03:38.758Z,69.84
2018-02-08T01:04:19.339Z,70.03
2018-02-08T01:04:59.890Z,69.74
2018-02-08T01:05:40.437Z,69.56
2018-02-08T01:06:21.016Z,70.21
2018-02-08T01:07:01.553Z,69.65
2018-02-08T01:07:42.198Z,69.56
2018-02-08T01:08:22.783Z,70.21
2018-02-08T01:09:03.362Z,70.21
2018-02-08T01:09:43.935Z,70.21
2018-02-08T01:10:24.480Z,70.12
2018-02-08T01:11:05.078Z,70.21
2018-02-08T01:11:45.635Z,70.31
2018-02-08T01:12:26.212Z,70.21
2018-02-08T01:13:06.837Z,70.12
2018-02-08T01:13:47.419Z,69.65
2018-02-08T01:14:27.965Z,69.37
2018-02-08T01:15:08.538Z,69.56
2018-02-08T01:15:49.130Z,69.65
2018-02-08T01:16:29.673Z,69.84
2018-02-08T01:17:10.237Z,70.12
2018-02-08T01:17:50.781Z,70.31
2018-02-08T01:18:31.337Z,70.31
2018-02-08T01:19:11.961Z,70.12
2018-02-08T01:19:52.584Z,70.21
2018-02-08T01:20:33.155Z,69.84
2018-02-08T01:21:13.709Z,69.37
2018-02-08T01:21:54.263Z,70.12
2018-02-08T01:22:34.806Z,70.12
2018-02-08T01:23:15.340Z,69.65
2018-02-08T01:23:55.924Z,69.46
2018-02-08T01:24:36.483Z,69.56
2018-02-08T01:25:17.050Z,69.65
2018-02-08T01:25:57.595Z,70.21
2018-02-08T01:26:38.212Z,70.31
2018-02-08T01:27:18.774Z,70.12
2018-02-08T01:27:59.346Z,70.31
2018-02-08T01:28:39.918Z,70.4
2018-02-08T01:29:20.502Z,70.31
2018-02-08T01:30:01.089Z,70.21
2018-02-08T01:30:41.677Z,70.31
2018-02-08T01:31:22.236Z,70.12
2018-02-08T01:32:02.777Z,69.84
2018-02-08T01:32:43.360Z,70.5
2018-02-08T01:33:23.905Z,70.03
2018-02-08T01:34:04.513Z,70.03
2018-02-08T01:34:45.054Z,69.93
2018-02-08T01:35:25.584Z,70.5
2018-02-08T01:36:06.237Z,70.5
2018-02-08T01:36:46.788Z,70.31
2018-02-08T01:37:27.428Z,70.21
2018-02-08T01:38:07.909Z,70.31
2018-02-08T01:38:48.412Z,70.4
2018-02-08T01:39:28.977Z,70.5
2018-02-08T01:40:09.543Z,70.12
2018-02-08T01:40:50.081Z,70.21
2018-02-08T01:41:30.658Z,70.4
2018-02-08T01:42:11.223Z,70.12
2018-02-08T01:42:51.784Z,70.59
2018-02-08T01:43:32.397Z,70.59
2018-02-08T01:44:12.940Z,70.5
2018-02-08T01:44:53.539Z,70.97
2018-02-08T01:45:34.164Z,70.78
2018-02-08T01:46:14.676Z,70.78
2018-02-08T01:46:55.249Z,70.78
2018-02-08T01:47:35.800Z,70.97
2018-02-08T01:48:16.395Z,70.88
2018-02-08T01:48:56.935Z,70.97
2018-02-08T01:49:37.494Z,70.78
2018-02-08T01:50:18.105Z,70.78
2018-02-08T01:50:58.669Z,70.59
2018-02-08T01:51:39.200Z,70.59
2018-02-08T01:52:19.756Z,70.5
2018-02-08T01:53:00.310Z,70.59
2018-02-08T01:53:40.869Z,70.5
2018-02-08T01:54:21.503Z,70.59
2018-02-08T01:55:02.050Z,70.69
2018-02-08T01:55:42.599Z,70.59
2018-02-08T01:56:23.157Z,70.97
2018-02-08T01:57:03.765Z,70.4
2018-02-08T01:57:44.306Z,70.59
2018-02-08T01:58:24.883Z,70.59
2018-02-08T01:59:05.436Z,70.97
2018-02-08T01:59:46.005Z,70.59
2018-02-08T02:00:26.573Z,70.69
2018-02-08T02:01:07.132Z,70.69
2018-02-08T02:01:47.680Z,70.5
2018-02-08T02:02:28.229Z,70.59
2018-02-08T02:03:08.767Z,70.88
2018-02-08T02:03:49.346Z,70.59
2018-02-08T02:04:29.921Z,70.78
2018-02-08T02:05:10.537Z,70.69
2018-02-08T02:05:51.117Z,70.31
2018-02-08T02:06:31.682Z,70.12
2018-02-08T02:07:12.241Z,70.12
2018-02-08T02:07:52.808Z,69.37
2018-02-08T02:08:33.380Z,69.84
2018-02-08T02:09:13.984Z,70.21
2018-02-08T02:09:54.546Z,70.12
2018-02-08T02:10:35.199Z,70.12
2018-02-08T02:11:15.786Z,70.03
2018-02-08T02:11:56.404Z,70.12
2018-02-08T02:12:36.969Z,70.03
2018-02-08T02:13:17.533Z,70.12
2018-02-08T02:13:58.145Z,70.4
2018-02-08T02:14:38.712Z,70.21
2018-02-08T02:15:19.254Z,70.21
2018-02-08T02:15:59.807Z,70.31
2018-02-08T02:16:40.396Z,70.12
2018-02-08T02:17:20.961Z,69.74
2018-02-08T02:18:01.537Z,69.74
2018-02-08T02:18:42.092Z,69.65
2018-02-08T02:19:22.665Z,69.74
2018-02-08T02:20:03.223Z,69.74
2018-02-08T02:20:43.889Z,69.65
2018-02-08T02:21:24.419Z,69.46
2018-02-08T02:22:04.999Z,69.84
2018-02-08T02:22:45.573Z,69.65
2018-02-08T02:23:26.125Z,69.65
2018-02-08T02:24:06.673Z,69.74
2018-02-08T02:24:47.282Z,69.93
2018-02-08T02:25:27.827Z,69.84
2018-02-08T02:26:08.385Z,69.56
2018-02-08T02:26:48.949Z,69.27
2018-02-08T02:27:29.487Z,69.37
2018-02-08T02:28:10.038Z,69.37
2018-02-08T02:28:50.624Z,69.46
2018-02-08T02:29:31.204Z,69.46
2018-02-08T02:30:11.739Z,69.37
2018-02-08T02:30:52.295Z,69.56
2018-02-08T02:31:32.828Z,69.84
2018-02-08T02:32:13.419Z,68.9
2018-02-08T02:32:53.979Z,69.09
2018-02-08T02:33:34.566Z,69.09
2018-02-08T02:34:15.143Z,69.18
2018-02-08T02:34:55.703Z,69.18
2018-02-08T02:35:36.271Z,69.56
2018-02-08T02:36:16.850Z,69.56
2018-02-08T02:36:57.449Z,69.65
2018-02-08T02:37:38.015Z,69.74
2018-02-08T02:38:18.554Z,69.56
2018-02-08T02:38:59.106Z,69.37
2018-02-08T02:39:39.660Z,69.27
2018-02-08T02:40:20.220Z,69.65
2018-02-08T02:41:00.786Z,69.65
2018-02-08T02:41:41.322Z,69.46
2018-02-08T02:42:21.886Z,69.56
2018-02-08T02:43:02.438Z,69.56
2018-02-08T02:43:42.988Z,69.37
2018-02-08T02:44:23.541Z,69.27
2018-02-08T02:45:04.092Z,69.27
2018-02-08T02:45:44.648Z,69.56
2018-02-08T02:46:25.199Z,69.46
2018-02-08T02:47:05.772Z,69.37
2018-02-08T02:47:46.290Z,69.46
2018-02-08T02:48:26.862Z,69.74
2018-02-08T02:49:07.411Z,69.37
2018-02-08T02:49:47.982Z,69.65
2018-02-08T02:50:28.570Z,69.46
2018-02-08T02:51:09.143Z,69.56
2018-02-08T02:51:49.687Z,69.46
2018-02-08T02:52:30.296Z,69.46
2018-02-08T02:53:10.872Z,69.37
2018-02-08T02:53:51.448Z,69.46
2018-02-08T02:54:32.007Z,69.74
2018-02-08T02:55:12.650Z,69.74
2018-02-08T02:55:53.249Z,69.37
2018-02-08T02:56:33.835Z,69.46
2018-02-08T02:57:14.419Z,69.37
2018-02-08T02:57:54.966Z,69.56
2018-02-08T02:58:35.523Z,69.56
2018-02-08T02:59:16.078Z,69.65
2018-02-08T02:59:56.642Z,69.46
2018-02-08T03:00:37.181Z,69.84
2018-02-08T03:01:17.734Z,69.37
2018-02-08T03:01:58.289Z,69.74
2018-02-08T03:02:38.840Z,69.56
2018-02-08T03:03:19.374Z,69.56
2018-02-08T03:03:59.939Z,69.56
2018-02-08T03:04:40.494Z,69.65
2018-02-08T03:05:21.075Z,69.46
2018-02-08T03:06:01.653Z,69.65
2018-02-08T03:06:42.204Z,69.56
2018-02-08T03:07:22.767Z,69.65
2018-02-08T03:08:03.302Z,69.56
2018-02-08T03:08:43.868Z,69.84
2018-02-08T03:09:24.427Z,69.74
2018-02-08T03:10:04.980Z,69.65
2018-02-08T03:10:45.559Z,69.84
2018-02-08T03:11:26.103Z,69.65
2018-02-08T03:12:06.684Z,69.56
2018-02-08T03:12:47.260Z,69.65
2018-02-08T03:13:27.791Z,69.27
2018-02-08T03:14:08.341Z,69.65
2018-02-08T03:14:48.962Z,69.27
2018-02-08T03:15:29.567Z,69.27
2018-02-08T03:16:10.103Z,69.84
2018-02-08T03:16:50.655Z,69.74
2018-02-08T03:17:31.215Z,69.37
2018-02-08T03:18:11.780Z,69.56
2018-02-08T03:18:52.379Z,69.65
2018-02-08T03:19:32.978Z,69.65
2018-02-08T03:20:13.495Z,69.84
2018-02-08T03:20:54.106Z,68.9
2018-02-08T03:21:34.656Z,69.18
2018-02-08T03:22:15.224Z,68.99
2018-02-08T03:22:55.801Z,69.37
2018-02-08T03:23:36.328Z,69.18
2018-02-08T03:24:16.901Z,69.09
2018-02-08T03:24:57.434Z,68.9
2018-02-08T03:25:37.963Z,69.84
2018-02-08T03:26:18.554Z,69.56
2018-02-08T03:26:59.087Z,69.56
2018-02-08T03:27:39.642Z,69.56
2018-02-08T03:28:20.204Z,69.65
2018-02-08T03:29:00.755Z,69.09
2018-02-08T03:29:41.295Z,69.18
2018-02-08T03:30:21.857Z,69.18
2018-02-08T03:31:02.405Z,68.99
2018-02-08T03:31:42.975Z,69.09
2018-02-08T03:32:23.525Z,69.18
2018-02-08T03:33:04.078Z,69.18
2018-02-08T03:33:44.618Z,69.37
2018-02-08T03:34:25.189Z,68.9
2018-02-08T03:35:05.731Z,68.9
2018-02-08T03:35:46.282Z,68.9
2018-02-08T03:36:26.833Z,68.99
2018-02-08T03:37:07.381Z,68.42
2018-02-08T03:37:47.944Z,68.8
2018-02-08T03:38:28.511Z,68.42
2018-02-08T03:39:09.058Z,68.23
2018-02-08T03:39:49.638Z,68.52
2018-02-08T03:40:30.196Z,68.99
2018-02-08T03:41:10.805Z,68.61
2018-02-08T03:41:51.417Z,68.52
2018-02-08T03:42:31.970Z,68.14
2018-02-08T03:43:12.524Z,68.14
2018-02-08T03:43:53.107Z,68.29
2018-02-08T03:44:33.678Z,68.42
2018-02-08T03:45:14.218Z,68.29
2018-02-08T03:45:54.760Z,68.61
2018-02-08T03:46:35.310Z,68.14
2018-02-08T03:47:15.861Z,68.42
2018-02-08T03:47:56.426Z,68.2
2018-02-08T03:48:36.970Z,68.1
2018-02-08T03:49:17.524Z,68.2
2018-02-08T03:49:58.100Z,68.29
2018-02-08T03:50:38.638Z,68.29
2018-02-08T03:51:19.176Z,68.1
2018-02-08T03:51:59.770Z,68.1
2018-02-08T03:52:40.302Z,68.29
2018-02-08T03:53:20.843Z,68.39
2018-02-08T03:54:01.392Z,68.39
2018-02-08T03:54:41.942Z,68.1
2018-02-08T03:55:22.489Z,68.39
2018-02-08T03:56:03.023Z,68.29
2018-02-08T03:56:43.579Z,68.2
2018-02-08T03:57:24.146Z,68.39
2018-02-08T03:58:04.691Z,68.39
2018-02-08T03:58:45.266Z,68.29
2018-02-08T03:59:25.778Z,68.29
2018-02-08T04:00:06.334Z,68.39
2018-02-08T04:00:46.883Z,68.29
2018-02-08T04:01:27.425Z,68.01
2018-02-08T04:02:07.990Z,67.54
2018-02-08T04:02:48.499Z,67.82
2018-02-08T04:03:29.065Z,67.07
2018-02-08T04:04:09.644Z,67.07
2018-02-08T04:04:50.196Z,66.78
2018-02-08T04:05:30.747Z,66.5
2018-02-08T04:06:11.301Z,66.69
2018-02-08T04:06:51.868Z,66.5
2018-02-08T04:07:32.440Z,66.97
2018-02-08T04:08:13.007Z,66.97
2018-02-08T04:08:53.561Z,66.88
2018-02-08T04:09:34.109Z,66.69
2018-02-08T04:10:14.691Z,66.88
2018-02-08T04:10:55.233Z,66.78
2018-02-08T04:11:35.788Z,66.88
2018-02-08T04:12:16.361Z,66.88
2018-02-08T04:12:56.913Z,66.88
2018-02-08T04:13:37.488Z,66.97
2018-02-08T04:14:18.038Z,67.25
2018-02-08T04:14:58.568Z,66.97
2018-02-08T04:15:39.123Z,67.16
2018-02-08T04:16:19.677Z,67.07
2018-02-08T04:17:00.236Z,66.97
2018-02-08T04:17:40.787Z,66.88
2018-02-08T04:18:21.344Z,66.88
2018-02-08T04:19:01.907Z,66.69
2018-02-08T04:19:42.453Z,66.78
2018-02-08T04:20:23.025Z,66.59
2018-02-08T04:21:03.605Z,66.59
2018-02-08T04:21:44.164Z,66.78
2018-02-08T04:22:24.732Z,66.78
2018-02-08T04:23:05.293Z,66.78
2018-02-08T04:23:45.834Z,66.69
2018-02-08T04:24:26.380Z,66.69
2018-02-08T04:25:06.942Z,66.78
2018-02-08T04:25:47.503Z,66.78
2018-02-08T04:26:28.046Z,66.59
2018-02-08T04:27:08.595Z,66.78
2018-02-08T04:27:49.160Z,66.69
2018-02-08T04:28:29.688Z,66.59
2018-02-08T04:29:10.243Z,66.5
2018-02-08T04:29:50.802Z,66.88
2018-02-08T04:30:31.348Z,66.88
2018-02-08T04:31:11.903Z,66.59
2018-02-08T04:31:52.445Z,66.78
2018-02-08T04:32:32.998Z,66.69
2018-02-08T04:33:13.539Z,66.88
2018-02-08T04:33:54.092Z,66.88
2018-02-08T04:34:34.650Z,66.69
2018-02-08T04:35:15.299Z,66.78
2018-02-08T04:35:55.839Z,66.78
2018-02-08T04:36:36.394Z,66.59
2018-02-08T04:37:16.945Z,66.59
2018-02-08T04:37:57.497Z,66.69
2018-02-08T04:38:38.048Z,67.16
2018-02-08T04:39:18.604Z,67.07
2018-02-08T04:39:59.169Z,66.59
2018-02-08T04:40:39.729Z,66.88
2018-02-08T04:41:20.275Z,66.88
2018-02-08T04:42:00.831Z,66.88
2018-02-08T04:42:41.383Z,66.88
2018-02-08T04:43:21.930Z,66.59
2018-02-08T04:44:02.548Z,66.78
2018-02-08T04:44:43.140Z,66.88
2018-02-08T04:45:23.663Z,66.5
2018-02-08T04:46:04.240Z,66.59
2018-02-08T04:46:44.792Z,66.78
2018-02-08T04:47:25.346Z,66.78
2018-02-08T04:48:05.888Z,66.78
2018-02-08T04:48:46.436Z,66.78
2018-02-08T04:49:26.972Z,66.59
2018-02-08T04:50:07.543Z,66.78
2018-02-08T04:50:48.132Z,66.88
2018-02-08T04:51:28.737Z,66.69
2018-02-08T04:52:09.295Z,67.16
2018-02-08T04:52:49.869Z,67.07
2018-02-08T04:53:30.463Z,67.16
2018-02-08T04:54:11.029Z,67.16
2018-02-08T04:54:51.573Z,67.54
2018-02-08T04:55:32.130Z,67.44
2018-02-08T04:56:12.668Z,67.44
2018-02-08T04:56:53.233Z,67.25
2018-02-08T04:57:33.786Z,67.16
2018-02-08T04:58:14.344Z,67.16
2018-02-08T04:58:54.894Z,67.16
2018-02-08T04:59:35.435Z,67.25
2018-02-08T05:00:15.994Z,67.25
2018-02-08T05:00:56.570Z,66.97
2018-02-08T05:01:37.197Z,66.78
2018-02-08T05:02:17.747Z,66.78
2018-02-08T05:02:58.315Z,66.78
2018-02-08T05:03:38.850Z,66.59
2018-02-08T05:04:19.397Z,66.69
2018-02-08T05:05:00.342Z,66.88
2018-02-08T05:05:40.903Z,66.88
2018-02-08T05:06:21.507Z,66.88
2018-02-08T05:07:02.085Z,66.88
2018-02-08T05:07:42.653Z,66.88
2018-02-08T05:08:23.217Z,66.78
2018-02-08T05:09:03.769Z,66.59
2018-02-08T05:09:44.330Z,66.78
2018-02-08T05:10:24.876Z,66.69
2018-02-08T05:11:05.424Z,66.69
2018-02-08T05:11:45.969Z,66.78
2018-02-08T05:12:26.529Z,66.72
2018-02-08T05:13:07.116Z,66.78
2018-02-08T05:13:47.653Z,67
2018-02-08T05:14:28.222Z,67
2018-02-08T05:15:08.755Z,66.82
2018-02-08T05:15:49.305Z,66.97
2018-02-08T05:16:29.926Z,66.59
2018-02-08T05:17:10.469Z,66.91
2018-02-08T05:17:51.020Z,66.69
2018-02-08T05:18:31.587Z,66.69
2018-02-08T05:19:12.163Z,66.88
2018-02-08T05:19:52.712Z,66.88
2018-02-08T05:20:33.250Z,66.78
2018-02-08T05:21:13.820Z,66.78
2018-02-08T05:21:54.354Z,66.88
2018-02-08T05:22:34.901Z,67.16
2018-02-08T05:23:15.481Z,67.16
2018-02-08T05:23:56.030Z,67.19
2018-02-08T05:24:36.573Z,66.91
2018-02-08T05:25:17.113Z,67.07
2018-02-08T05:25:57.669Z,67.25
2018-02-08T05:26:38.227Z,67.16
2018-02-08T05:27:18.796Z,67.29
2018-02-08T05:27:59.335Z,67.29
2018-02-08T05:28:39.908Z,67.19
2018-02-08T05:29:20.446Z,67.29
2018-02-08T05:30:00.976Z,67.1
2018-02-08T05:30:41.529Z,67.19
2018-02-08T05:31:22.089Z,67.19
2018-02-08T05:32:02.634Z,67
2018-02-08T05:32:43.196Z,67.19
2018-02-08T05:33:23.743Z,66.78
2018-02-08T05:34:04.291Z,66.88
2018-02-08T05:34:44.839Z,66.72
2018-02-08T05:35:25.387Z,66.78
2018-02-08T05:36:05.941Z,66.88
2018-02-08T05:36:46.514Z,66.97
2018-02-08T05:37:27.072Z,66.59
2018-02-08T05:38:07.605Z,66.59
2018-02-08T05:38:48.186Z,66.59
2018-02-08T05:39:28.714Z,66.69
2018-02-08T05:40:09.304Z,66.88
2018-02-08T05:40:49.903Z,66.88
2018-02-08T05:41:30.395Z,66.97
2018-02-08T05:42:10.963Z,66.59
2018-02-08T05:42:51.516Z,66.78
2018-02-08T05:43:32.092Z,66.97
2018-02-08T05:44:12.646Z,66.78
2018-02-08T05:44:53.198Z,66.88
2018-02-08T05:45:33.752Z,66.88
2018-02-08T05:46:14.301Z,66.97
2018-02-08T05:46:54.873Z,66.78
2018-02-08T05:47:35.414Z,66.59
2018-02-08T05:48:15.958Z,67.07
2018-02-08T05:48:56.531Z,67.35
2018-02-08T05:49:37.071Z,67.35
2018-02-08T05:50:17.622Z,67.25
2018-02-08T05:50:58.161Z,67.44
2018-02-08T05:51:38.748Z,66.97
2018-02-08T05:52:19.316Z,66.97
2018-02-08T05:52:59.857Z,67.07
2018-02-08T05:53:40.419Z,67.35
2018-02-08T05:54:20.972Z,67.16
2018-02-08T05:55:01.508Z,67.16
2018-02-08T05:55:42.101Z,67.07
2018-02-08T05:56:22.661Z,66.88
2018-02-08T05:57:03.259Z,67.07
2018-02-08T05:57:43.794Z,67.16
2018-02-08T05:58:24.355Z,67.35
2018-02-08T05:59:04.915Z,67.07
2018-02-08T05:59:45.524Z,67.25
2018-02-08T06:00:26.057Z,67.44
2018-02-08T06:01:06.628Z,67.35
2018-02-08T06:01:47.187Z,67.35
2018-02-08T06:02:27.732Z,67.25
2018-02-08T06:03:08.314Z,67.35
2018-02-08T06:03:48.888Z,67.25
2018-02-08T06:04:29.460Z,67.38
2018-02-08T06:05:10.103Z,67.82
2018-02-08T06:05:50.656Z,67.85
2018-02-08T06:06:31.219Z,67.25
2018-02-08T06:07:11.803Z,67.47
2018-02-08T06:07:52.368Z,67.91
2018-02-08T06:08:32.939Z,67.82
2018-02-08T06:09:13.512Z,67.47
2018-02-08T06:09:54.147Z,67.66
2018-02-08T06:10:34.744Z,67.66
2018-02-08T06:11:15.305Z,67.85
2018-02-08T06:11:55.943Z,68.14
2018-02-08T06:12:36.649Z,67.95
2018-02-08T06:13:17.196Z,67.95
2018-02-08T06:13:57.803Z,68.04
2018-02-08T06:14:38.404Z,68.04
2018-02-08T06:15:18.967Z,67.76
2018-02-08T06:15:59.527Z,67.85
2018-02-08T06:16:40.119Z,68.04
2018-02-08T06:17:20.727Z,67.95
2018-02-08T06:18:01.286Z,68.04
2018-02-08T06:18:42.470Z,67.91
2018-02-08T06:19:23.017Z,68.2
2018-02-08T06:20:03.541Z,68.39
2018-02-08T06:20:44.089Z,68.29
2018-02-08T06:21:24.693Z,68.48
2018-02-08T06:22:05.249Z,68.1
2018-02-08T06:22:45.911Z,68.2
2018-02-08T06:23:26.478Z,68.2
2018-02-08T06:24:07.079Z,68.29
2018-02-08T06:24:47.616Z,68.33
2018-02-08T06:25:28.196Z,68.39
2018-02-08T06:26:08.766Z,68.29
2018-02-08T06:26:49.289Z,68.2
2018-02-08T06:27:29.834Z,68.39
2018-02-08T06:28:10.473Z,68.29
2018-02-08T06:28:51.009Z,68.95
2018-02-08T06:29:31.666Z,68.76
2018-02-08T06:30:12.238Z,68.95
2018-02-08T06:30:52.813Z,68.76
2018-02-08T06:31:33.419Z,68.48
2018-02-08T06:32:14.022Z,68.95
2018-02-08T06:32:54.569Z,68.67
2018-02-08T06:33:35.110Z,68.76
2018-02-08T06:34:15.682Z,68.86
2018-02-08T06:34:56.278Z,68.86
2018-02-08T06:35:36.820Z,68.86
2018-02-08T06:36:17.378Z,68.57
2018-02-08T06:36:57.936Z,69.14
2018-02-08T06:37:38.483Z,69.33
2018-02-08T06:38:19.031Z,68.86
2018-02-08T06:38:59.584Z,68.86
2018-02-08T06:39:40.140Z,68.86
2018-02-08T06:40:20.725Z,68.86
2018-02-08T06:41:01.295Z,68.67
2018-02-08T06:41:41.834Z,68.76
2018-02-08T06:42:22.400Z,68.86
2018-02-08T06:43:02.943Z,68.48
2018-02-08T06:43:43.501Z,68.95
2018-02-08T06:44:24.048Z,68.76
2018-02-08T06:45:04.617Z,68.76
2018-02-08T06:45:45.178Z,68.76
2018-02-08T06:46:25.732Z,68.76
2018-02-08T06:47:06.364Z,68.86
2018-02-08T06:47:46.924Z,68.67
2018-02-08T06:48:27.508Z,69.14
2018-02-08T06:49:08.045Z,69.05
2018-02-08T06:49:48.655Z,68.95
2018-02-08T06:50:29.189Z,69.71
2018-02-08T06:51:09.792Z,69.62
2018-02-08T06:51:50.337Z,69.52
2018-02-08T06:52:30.903Z,69.62
2018-02-08T06:53:11.437Z,69.81
2018-02-08T06:53:52.006Z,68.86
2018-02-08T06:54:32.551Z,69.05
2018-02-08T06:55:13.168Z,69.14
2018-02-08T06:55:53.718Z,68.76
2018-02-08T06:56:34.276Z,68.57
2018-02-08T06:57:14.846Z,69.05
2018-02-08T06:57:55.450Z,69.05
2018-02-08T06:58:36.006Z,68.86
2018-02-08T06:59:16.564Z,68.67
2018-02-08T06:59:57.146Z,68.86
2018-02-08T07:00:37.703Z,69.33
2018-02-08T07:01:18.252Z,69.24
2018-02-08T07:01:58.809Z,69.05
2018-02-08T07:02:39.337Z,69.14
2018-02-08T07:03:19.891Z,69.33
2018-02-08T07:04:00.415Z,69.05
2018-02-08T07:04:40.960Z,69.05
2018-02-08T07:05:21.535Z,69.52
2018-02-08T07:06:02.091Z,69.24
2018-02-08T07:06:42.665Z,69.62
2018-02-08T07:07:23.206Z,69.43
2018-02-08T07:08:03.769Z,69.71
2018-02-08T07:08:44.317Z,70
2018-02-08T07:09:24.905Z,70
2018-02-08T07:10:05.469Z,69.33
2018-02-08T07:10:46.028Z,69.33
2018-02-08T07:11:26.578Z,69.52
2018-02-08T07:12:07.144Z,69.65
2018-02-08T07:12:47.682Z,69.56
2018-02-08T07:13:28.259Z,69.33
2018-02-08T07:14:08.798Z,69.46
2018-02-08T07:14:49.340Z,69.65
2018-02-08T07:15:29.901Z,69.71
2018-02-08T07:16:10.487Z,68.8
2018-02-08T07:16:51.059Z,69.09
2018-02-08T07:17:31.638Z,69.09
2018-02-08T07:18:12.190Z,69.18
2018-02-08T07:18:52.730Z,69.09
2018-02-08T07:19:33.330Z,68.9
2018-02-08T07:20:13.882Z,68.99
2018-02-08T07:20:54.442Z,68.99
2018-02-08T07:21:34.990Z,68.71
2018-02-08T07:22:15.585Z,68.99
2018-02-08T07:22:56.139Z,68.8
2018-02-08T07:23:36.693Z,68.9
2018-02-08T07:24:17.242Z,68.71
2018-02-08T07:24:57.796Z,69.27
2018-02-08T07:25:38.347Z,69.37
2018-02-08T07:26:18.928Z,69.09
2018-02-08T07:26:59.490Z,69.65
2018-02-08T07:27:40.020Z,69.56
2018-02-08T07:28:20.586Z,69.56
2018-02-08T07:29:01.146Z,69.65
2018-02-08T07:29:41.736Z,69.27
2018-02-08T07:30:22.266Z,69.65
2018-02-08T07:31:02.797Z,69.65
2018-02-08T07:31:43.404Z,69.74
2018-02-08T07:32:23.953Z,69.56
2018-02-08T07:33:04.547Z,69.56
2018-02-08T07:33:45.153Z,69.65
2018-02-08T07:34:25.642Z,69.65
2018-02-08T07:35:06.201Z,69.56
2018-02-08T07:35:46.761Z,69.56
2018-02-08T07:36:27.298Z,69.93
2018-02-08T07:37:07.851Z,69.84
2018-02-08T07:37:48.404Z,69.56
2018-02-08T07:38:28.960Z,69.56
2018-02-08T07:39:09.520Z,69.56
2018-02-08T07:39:50.088Z,69.56
2018-02-08T07:40:30.634Z,69.65
2018-02-08T07:41:11.204Z,69.56
2018-02-08T07:41:51.737Z,69.46
2018-02-08T07:42:32.283Z,69.65
2018-02-08T07:43:12.977Z,69.65
2018-02-08T07:43:53.537Z,69.09
2018-02-08T07:44:34.079Z,69.09
2018-02-08T07:45:14.644Z,69.18
2018-02-08T07:45:55.215Z,69.18
2018-02-08T07:46:35.767Z,69.37
2018-02-08T07:47:16.299Z,69.37
2018-02-08T07:47:56.902Z,69.18
2018-02-08T07:48:37.435Z,69.27
2018-02-08T07:49:17.980Z,69.37
2018-02-08T07:49:58.526Z,69.37
2018-02-08T07:50:39.055Z,69.37
2018-02-08T07:51:19.627Z,69.37
2018-02-08T07:52:00.189Z,68.8
2018-02-08T07:52:40.730Z,69.18
2018-02-08T07:53:21.290Z,68.99
2018-02-08T07:54:01.907Z,68.61
2018-02-08T07:54:42.458Z,68.14
2018-02-08T07:55:22.985Z,68.42
2018-02-08T07:56:03.546Z,68.14
2018-02-08T07:56:44.084Z,68.14
2018-02-08T07:57:24.656Z,68.33
2018-02-08T07:58:05.239Z,68.42
2018-02-08T07:58:45.764Z,68.33
2018-02-08T07:59:26.306Z,67.66
2018-02-08T08:00:06.866Z,67.29
2018-02-08T08:00:47.457Z,67.47
2018-02-08T08:01:28.004Z,67.38
2018-02-08T08:02:08.584Z,67.29
2018-02-08T08:02:49.180Z,67.29
2018-02-08T08:03:30.011Z,67.29
2018-02-08T08:04:10.761Z,67.29
2018-02-08T08:04:51.568Z,66.91
2018-02-08T08:05:32.272Z,66.72
2018-02-08T08:06:13.293Z,66.72
2018-02-08T08:06:54.009Z,66.91
2018-02-08T08:07:34.673Z,66.63
2018-02-08T08:08:15.469Z,66.63
2018-02-08T08:08:56.126Z,66.82
2018-02-08T08:09:36.987Z,66.63
2018-02-08T08:10:18.063Z,67.1
2018-02-08T08:10:58.906Z,67.29
2018-02-08T08:11:39.871Z,67.29
2018-02-08T08:12:20.516Z,67.19
2018-02-08T08:13:01.343Z,67.19
2018-02-08T08:13:41.926Z,67.19
2018-02-08T08:14:22.603Z,67.1
2018-02-08T08:15:03.227Z,67
2018-02-08T08:15:43.917Z,67.1
2018-02-08T08:16:24.837Z,67.1
2018-02-08T08:17:05.620Z,67.19
2018-02-08T08:17:46.455Z,67.19
2018-02-08T08:18:27.190Z,67.1
2018-02-08T08:19:08.063Z,66.91
2018-02-08T08:19:48.633Z,67
2018-02-08T08:20:29.231Z,66.72
2018-02-08T08:21:09.874Z,66.63
2018-02-08T08:21:50.436Z,66.63
2018-02-08T08:22:31.063Z,66.53
2018-02-08T08:23:11.636Z,66.72
2018-02-08T08:23:52.193Z,66.72
2018-02-08T08:24:32.801Z,66.16
2018-02-08T08:25:13.353Z,66.38
2018-02-08T08:25:53.929Z,66.19
2018-02-08T08:26:34.473Z,66.56
2018-02-08T08:27:15.046Z,66.66
2018-02-08T08:27:55.674Z,66.94
2018-02-08T08:28:36.225Z,66.13
2018-02-08T08:29:16.756Z,65.66
2018-02-08T08:29:57.306Z,65.18
2018-02-08T08:30:37.896Z,65.21
2018-02-08T08:31:18.435Z,64.07
2018-02-08T08:31:58.988Z,63.23
2018-02-08T08:32:39.642Z,61.93
2018-02-08T08:33:20.196Z,60.99
2018-02-08T08:34:00.756Z,59.84
2018-02-08T08:34:41.285Z,58.45
2018-02-08T08:35:21.836Z,57.42
2018-02-08T08:36:02.413Z,56.27
2018-02-08T08:36:43.000Z,55.9
2018-02-08T08:37:23.576Z,55.55
2018-02-08T08:38:04.192Z,54.41
2018-02-08T08:38:44.727Z,54.13
2018-02-08T08:39:25.334Z,52.8
2018-02-08T08:40:05.848Z,53.2
2018-02-08T08:40:46.434Z,52.45
2018-02-08T08:41:26.962Z,51.87
2018-02-08T08:42:07.571Z,51.5
2018-02-08T08:42:48.233Z,50.76
2018-02-08T08:43:28.788Z,50.1
2018-02-08T08:44:09.360Z,49.63